Time;durP1;ratioP1;P1;durP2;ratioP2;P2;SDS_P1;SDS_P2;PMS_P1;PMS_P2;Temp;Humidity;BMP_temperature;BMP_pressure;BME280_temperature;BME280_humidity;BME280_pressure;Samples;Min_cycle;Max_cycle;Signal;HPM_P1;HPM_P2
2023/05/07 00:00:18;;;;;;;8.40;5.25;;;;;;;;;;5019851;28;20057;-70
2023/05/07 00:02:47;;;;;;;5.90;5.30;;;;;;;;;;5019182;28;20530;-71
2023/05/07 00:05:13;;;;;;;7.20;5.35;;;;;;;;;;5020918;28;20041;-72
2023/05/07 00:07:38;;;;;;;9.05;5.25;;;;;;;;;;5021087;28;20139;-74
2023/05/07 00:10:06;;;;;;;7.47;5.60;;;;;;;;;;5020749;28;20514;-70
2023/05/07 00:12:33;;;;;;;6.35;4.97;;;;;;;;;;5013185;28;20045;-69
2023/05/07 00:15:00;;;;;;;5.75;4.93;;;;;;;;;;5016891;28;20045;-70
2023/05/07 00:17:25;;;;;;;5.35;4.85;;;;;;;;;;5020914;28;20045;-72
2023/05/07 00:19:50;;;;;;;7.00;5.10;;;;;;;;;;5016532;28;20104;-70
2023/05/07 00:22:16;;;;;;;6.35;5.65;;;;;;;;;;5013128;28;20060;-71
2023/05/07 00:24:42;;;;;;;8.57;5.88;;;;;;;;;;5014591;28;20041;-72
2023/05/07 00:27:07;;;;;;;8.23;5.75;;;;;;;;;;5020712;28;20045;-74
2023/05/07 00:29:33;;;;;;;6.32;5.72;;;;;;;;;;5036496;28;20041;-70
2023/05/07 00:31:58;;;;;;;6.10;5.50;;;;;;;;;;5019713;28;20168;-73
2023/05/07 00:34:24;;;;;;;8.20;5.80;;;;;;;;;;5018450;28;20071;-71
2023/05/07 00:36:49;;;;;;;6.40;5.70;;;;;;;;;;5035737;28;20038;-70
2023/05/07 00:39:14;;;;;;;6.20;5.00;;;;;;;;;;5020361;28;20053;-69
2023/05/07 00:41:40;;;;;;;6.20;5.50;;;;;;;;;;5020155;28;20048;-71
2023/05/07 00:44:06;;;;;;;6.50;5.80;;;;;;;;;;5035146;28;20045;-68
2023/05/07 00:46:32;;;;;;;8.15;5.85;;;;;;;;;;5012722;28;20175;-71
2023/05/07 00:48:59;;;;;;;9.07;6.10;;;;;;;;;;5036091;28;20743;-70
2023/05/07 00:51:26;;;;;;;7.53;6.32;;;;;;;;;;5035745;28;20136;-73
2023/05/07 00:53:52;;;;;;;7.82;6.45;;;;;;;;;;5020180;28;20056;-70
2023/05/07 00:56:17;;;;;;;6.68;6.03;;;;;;;;;;5014306;28;20058;-70
2023/05/07 00:58:43;;;;;;;6.72;6.03;;;;;;;;;;5035697;28;20134;-70
2023/05/07 01:01:08;;;;;;;10.00;6.30;;;;;;;;;;5019630;28;20049;-69
2023/05/07 01:03:34;;;;;;;7.80;6.05;;;;;;;;;;5020425;28;20037;-71
2023/05/07 01:06:01;;;;;;;8.10;6.63;;;;;;;;;;5017661;28;20211;-70
2023/05/07 01:08:29;;;;;;;7.40;6.55;;;;;;;;;;5018879;28;20045;-74
2023/05/07 01:10:56;;;;;;;9.02;6.15;;;;;;;;;;5017425;28;20703;-69
2023/05/07 01:13:23;;;;;;;8.75;6.55;;;;;;;;;;5018607;28;20054;-73
2023/05/07 01:15:49;;;;;;;9.50;7.50;;;;;;;;;;5003348;28;20049;-72
2023/05/07 01:18:15;;;;;;;9.20;6.88;;;;;;;;;;5016357;28;20053;-72
2023/05/07 01:20:41;;;;;;;8.45;6.80;;;;;;;;;;5013963;28;20375;-71
2023/05/07 01:23:07;;;;;;;10.82;6.55;;;;;;;;;;5000296;28;20042;-70
2023/05/07 01:25:32;;;;;;;10.35;7.40;;;;;;;;;;4991472;28;20384;-74
2023/05/07 01:28:01;;;;;;;11.90;7.82;;;;;;;;;;5011833;28;20042;-74
2023/05/07 01:30:29;;;;;;;9.68;6.95;;;;;;;;;;5015634;28;20045;-70
2023/05/07 01:33:01;;;;;;;10.02;7.70;;;;;;;;;;5027365;28;20046;-70
2023/05/07 01:35:32;;;;;;;9.05;7.43;;;;;;;;;;5013700;28;20414;-69
2023/05/07 01:37:58;;;;;;;7.47;6.03;;;;;;;;;;5017542;28;20171;-69
2023/05/07 01:40:25;;;;;;;10.07;6.07;;;;;;;;;;4986715;28;21168;-70
2023/05/07 01:42:51;;;;;;;9.15;5.55;;;;;;;;;;5035148;28;20095;-72
2023/05/07 01:45:17;;;;;;;5.75;5.10;;;;;;;;;;5034852;28;20053;-72
2023/05/07 01:47:43;;;;;;;6.80;5.45;;;;;;;;;;5020121;28;20114;-70
2023/05/07 01:50:09;;;;;;;10.45;6.00;;;;;;;;;;5018246;28;20060;-70
2023/05/07 01:52:38;;;;;;;7.07;6.38;;;;;;;;;;5038172;28;20053;-70
2023/05/07 01:55:05;;;;;;;7.78;6.63;;;;;;;;;;5038998;28;20057;-70
2023/05/07 01:57:30;;;;;;;7.28;6.57;;;;;;;;;;5022250;28;20128;-69
2023/05/07 01:59:56;;;;;;;7.78;6.97;;;;;;;;;;4993749;28;20678;-71
2023/05/07 02:02:21;;;;;;;8.07;6.40;;;;;;;;;;5013991;28;20777;-69
2023/05/07 02:04:47;;;;;;;9.13;7.03;;;;;;;;;;5038552;28;20051;-71
2023/05/07 02:07:14;;;;;;;10.38;8.00;;;;;;;;;;4990106;28;20573;-69
2023/05/07 02:09:39;;;;;;;9.32;7.15;;;;;;;;;;5022299;28;20076;-71
2023/05/07 02:12:05;;;;;;;10.30;7.47;;;;;;;;;;5037152;28;20210;-73
2023/05/07 02:14:30;;;;;;;8.63;7.75;;;;;;;;;;5038554;28;20127;-70
2023/05/07 02:16:56;;;;;;;10.88;7.40;;;;;;;;;;5023430;28;21095;-69
2023/05/07 02:19:22;;;;;;;9.05;7.68;;;;;;;;;;5038609;28;20486;-72
2023/05/07 02:21:48;;;;;;;11.93;8.02;;;;;;;;;;5021120;28;20077;-72
2023/05/07 02:24:13;;;;;;;10.48;8.05;;;;;;;;;;5018368;28;20055;-70
2023/05/07 02:26:40;;;;;;;13.93;8.30;;;;;;;;;;5038706;28;20077;-69
2023/05/07 02:29:06;;;;;;;13.15;8.68;;;;;;;;;;5021928;28;20053;-73
2023/05/07 02:31:33;;;;;;;11.35;7.80;;;;;;;;;;5038206;28;20045;-73
2023/05/07 02:34:00;;;;;;;8.05;7.25;;;;;;;;;;5036429;28;20053;-69
2023/05/07 02:36:26;;;;;;;9.65;7.25;;;;;;;;;;5038386;28;20069;-69
2023/05/07 02:39:02;;;;;;;8.98;7.32;;;;;;;;;;5038352;28;20038;-72
2023/05/07 02:41:28;;;;;;;9.20;7.93;;;;;;;;;;5038269;28;20395;-71
2023/05/07 02:43:54;;;;;;;9.15;7.57;;;;;;;;;;5037147;28;20060;-71
2023/05/07 02:46:20;;;;;;;11.52;7.40;;;;;;;;;;5021264;28;20041;-70
2023/05/07 02:48:51;;;;;;;11.13;7.55;;;;;;;;;;5020955;28;20108;-74
2023/05/07 02:51:20;;;;;;;9.80;7.00;;;;;;;;;;5022877;28;20045;-69
2023/05/07 02:53:46;;;;;;;10.98;7.47;;;;;;;;;;5022764;28;20135;-70
2023/05/07 02:56:11;;;;;;;11.73;7.70;;;;;;;;;;5028911;28;20379;-71
2023/05/07 02:58:39;;;;;;;13.50;8.30;;;;;;;;;;5023099;28;20137;-70
2023/05/07 03:01:05;;;;;;;10.75;7.32;;;;;;;;;;5037550;28;20050;-70
2023/05/07 03:03:38;;;;;;;8.57;7.40;;;;;;;;;;5037176;28;20029;-73
2023/05/07 03:06:03;;;;;;;9.50;7.55;;;;;;;;;;5013911;28;20098;-71
2023/05/07 03:08:28;;;;;;;12.73;7.65;;;;;;;;;;5022159;28;20037;-70
2023/05/07 03:10:54;;;;;;;11.23;7.95;;;;;;;;;;5020595;28;20050;-69
2023/05/07 03:13:19;;;;;;;11.18;6.65;;;;;;;;;;5021713;28;20107;-71
2023/05/07 03:15:45;;;;;;;12.48;7.32;;;;;;;;;;5037209;28;20095;-71
2023/05/07 03:18:10;;;;;;;8.90;7.40;;;;;;;;;;5013814;28;20144;-72
2023/05/07 03:20:36;;;;;;;14.75;8.57;;;;;;;;;;5037402;28;20084;-70
2023/05/07 03:23:02;;;;;;;8.88;7.38;;;;;;;;;;5017418;28;20073;-70
2023/05/07 03:25:29;;;;;;;11.25;7.25;;;;;;;;;;5015154;28;20108;-72
2023/05/07 03:27:55;;;;;;;9.10;7.40;;;;;;;;;;5029152;28;20077;-73
2023/05/07 03:30:26;;;;;;;12.30;8.03;;;;;;;;;;5020290;28;20524;-71
2023/05/07 03:32:51;;;;;;;12.90;7.35;;;;;;;;;;5020441;28;20050;-71
2023/05/07 03:35:17;;;;;;;9.63;7.95;;;;;;;;;;5020448;28;20045;-73
2023/05/07 03:37:42;;;;;;;11.02;7.85;;;;;;;;;;5037254;28;20053;-74
2023/05/07 03:40:10;;;;;;;9.70;7.40;;;;;;;;;;5013781;28;20483;-71
2023/05/07 03:42:42;;;;;;;8.43;7.47;;;;;;;;;;5020247;28;20041;-73
2023/05/07 03:45:09;;;;;;;9.52;7.25;;;;;;;;;;5036753;28;20144;-72
2023/05/07 03:47:35;;;;;;;9.90;7.45;;;;;;;;;;5020381;28;20046;-75
2023/05/07 03:50:01;;;;;;;10.35;7.80;;;;;;;;;;5012306;28;20050;-70
2023/05/07 03:52:26;;;;;;;10.07;8.35;;;;;;;;;;5020850;28;20037;-73
2023/05/07 03:54:54;;;;;;;12.93;8.65;;;;;;;;;;5020356;28;20048;-70
2023/05/07 03:57:20;;;;;;;12.02;8.88;;;;;;;;;;5036271;28;20045;-70
2023/05/07 03:59:46;;;;;;;11.57;8.55;;;;;;;;;;5036353;28;20817;-74
2023/05/07 04:02:12;;;;;;;11.35;8.10;;;;;;;;;;5032822;28;20511;-70
2023/05/07 04:04:38;;;;;;;10.90;8.80;;;;;;;;;;5036394;28;20034;-71
2023/05/07 04:07:03;;;;;;;14.60;8.23;;;;;;;;;;5021296;28;20056;-73
2023/05/07 04:09:30;;;;;;;16.38;8.23;;;;;;;;;;5019531;28;20406;-70
2023/05/07 04:11:57;;;;;;;8.52;7.63;;;;;;;;;;5019577;28;20049;-75
2023/05/07 04:14:22;;;;;;;10.70;8.55;;;;;;;;;;5020004;28;20115;-70
2023/05/07 04:16:48;;;;;;;11.48;8.02;;;;;;;;;;5036193;28;20060;-71
2023/05/07 04:19:13;;;;;;;10.82;8.32;;;;;;;;;;5036261;28;20077;-71
2023/05/07 04:21:39;;;;;;;10.32;7.82;;;;;;;;;;5021251;28;20041;-70
2023/05/07 04:24:05;;;;;;;10.63;8.65;;;;;;;;;;5034584;28;20127;-70
2023/05/07 04:26:32;;;;;;;10.45;8.73;;;;;;;;;;5014641;28;20129;-72
2023/05/07 04:28:59;;;;;;;9.07;8.18;;;;;;;;;;5036365;28;20588;-71
2023/05/07 04:31:27;;;;;;;14.75;9.15;;;;;;;;;;5036643;28;20056;-71
2023/05/07 04:33:53;;;;;;;12.20;8.52;;;;;;;;;;5031248;28;20080;-73
2023/05/07 04:36:19;;;;;;;11.98;8.10;;;;;;;;;;5036446;28;20049;-73
2023/05/07 04:38:50;;;;;;;9.98;8.40;;;;;;;;;;5021768;28;20072;-72
2023/05/07 04:41:17;;;;;;;10.38;8.35;;;;;;;;;;5037091;28;20445;-72
2023/05/07 04:43:42;;;;;;;8.77;7.75;;;;;;;;;;5035550;28;20109;-72
2023/05/07 04:46:10;;;;;;;12.88;8.35;;;;;;;;;;5034933;28;20069;-69
2023/05/07 04:48:36;;;;;;;11.25;7.68;;;;;;;;;;5038987;28;20091;-71
2023/05/07 04:51:03;;;;;;;10.95;7.40;;;;;;;;;;5019826;28;20045;-70
2023/05/07 04:53:29;;;;;;;8.10;7.00;;;;;;;;;;4996056;28;20044;-72
2023/05/07 04:55:56;;;;;;;12.93;8.77;;;;;;;;;;5016670;28;20465;-72
2023/05/07 04:58:23;;;;;;;11.75;8.50;;;;;;;;;;5018084;28;20050;-72
2023/05/07 05:00:49;;;;;;;10.43;8.98;;;;;;;;;;5035342;28;20050;-74
2023/05/07 05:03:15;;;;;;;14.43;10.80;;;;;;;;;;5016623;28;20056;-69
2023/05/07 05:05:40;;;;;;;21.02;12.82;;;;;;;;;;5018487;28;20037;-74
2023/05/07 05:08:06;;;;;;;40.53;23.65;;;;;;;;;;5032922;28;20049;-70
2023/05/07 05:10:34;;;;;;;19.70;13.55;;;;;;;;;;5034707;28;20045;-71
2023/05/07 05:13:00;;;;;;;21.50;12.57;;;;;;;;;;5035133;28;20055;-70
2023/05/07 05:15:26;;;;;;;13.07;10.68;;;;;;;;;;5034862;28;20047;-69
2023/05/07 05:17:51;;;;;;;11.27;8.13;;;;;;;;;;5018208;28;20053;-70
2023/05/07 05:20:17;;;;;;;8.98;7.97;;;;;;;;;;5016526;28;20053;-71
2023/05/07 05:22:43;;;;;;;6.40;5.80;;;;;;;;;;5034995;28;20080;-72
2023/05/07 05:25:09;;;;;;;7.53;5.90;;;;;;;;;;5018528;28;20052;-71
2023/05/07 05:27:35;;;;;;;10.98;8.98;;;;;;;;;;5019086;28;20413;-71
2023/05/07 05:30:01;;;;;;;8.77;7.50;;;;;;;;;;5030747;28;20069;-70
2023/05/07 05:32:27;;;;;;;8.82;4.80;;;;;;;;;;5014848;28;20033;-72
2023/05/07 05:34:55;;;;;;;6.40;4.53;;;;;;;;;;5034731;28;20510;-74
2023/05/07 05:37:21;;;;;;;5.93;5.05;;;;;;;;;;5034213;28;20057;-71
2023/05/07 05:39:48;;;;;;;5.45;4.47;;;;;;;;;;5031200;28;20084;-71
2023/05/07 05:42:15;;;;;;;5.60;5.00;;;;;;;;;;5034302;28;20546;-70
2023/05/07 05:44:40;;;;;;;4.47;4.05;;;;;;;;;;5035198;28;20048;-69
2023/05/07 05:47:06;;;;;;;4.38;3.97;;;;;;;;;;5034795;28;20041;-70
2023/05/07 05:49:32;;;;;;;3.67;3.30;;;;;;;;;;5018944;28;20073;-70
2023/05/07 05:51:57;;;;;;;4.07;3.72;;;;;;;;;;5033208;28;20050;-72
2023/05/07 05:54:25;;;;;;;6.28;2.92;;;;;;;;;;5034728;28;20509;-74
2023/05/07 05:56:50;;;;;;;6.35;3.05;;;;;;;;;;5018338;28;20538;-70
2023/05/07 05:59:15;;;;;;;3.80;3.03;;;;;;;;;;5020045;28;20132;-70
2023/05/07 06:01:41;;;;;;;4.75;3.88;;;;;;;;;;5034097;28;20091;-72
2023/05/07 06:04:07;;;;;;;4.13;3.70;;;;;;;;;;5017689;28;20111;-70
2023/05/07 06:06:33;;;;;;;7.07;3.70;;;;;;;;;;5034827;28;20129;-73
2023/05/07 06:08:59;;;;;;;5.22;2.70;;;;;;;;;;5035024;28;20137;-72
2023/05/07 06:11:32;;;;;;;3.90;2.88;;;;;;;;;;5029390;28;20034;-71
2023/05/07 06:13:58;;;;;;;3.47;2.42;;;;;;;;;;5030757;28;20049;-69
2023/05/07 06:16:24;;;;;;;6.50;2.72;;;;;;;;;;5029204;28;20033;-71
2023/05/07 06:18:50;;;;;;;3.58;2.75;;;;;;;;;;5029912;28;20109;-69
2023/05/07 06:21:16;;;;;;;7.53;3.17;;;;;;;;;;5033075;28;20041;-69
2023/05/07 06:23:41;;;;;;;3.63;2.50;;;;;;;;;;5029410;28;20042;-69
2023/05/07 06:26:07;;;;;;;4.00;2.58;;;;;;;;;;5015923;28;20103;-69
2023/05/07 06:28:38;;;;;;;4.95;2.55;;;;;;;;;;5004592;28;20052;-72
2023/05/07 06:31:20;;;;;;;3.92;2.45;;;;;;;;;;5014961;28;20076;-72
2023/05/07 06:33:51;;;;;;;8.27;2.72;;;;;;;;;;5012795;28;20445;-71
2023/05/07 06:36:17;;;;;;;2.88;2.03;;;;;;;;;;5016534;28;20506;-73
2023/05/07 06:38:44;;;;;;;3.92;2.15;;;;;;;;;;5020024;28;20041;-71
2023/05/07 06:41:09;;;;;;;3.10;2.60;;;;;;;;;;5038417;28;20099;-71
2023/05/07 06:43:37;;;;;;;2.65;2.45;;;;;;;;;;5037739;28;20034;-69
2023/05/07 06:46:21;;;;;;;3.42;2.47;;;;;;;;;;5015598;28;20056;-72
2023/05/07 06:48:47;;;;;;;4.30;2.38;;;;;;;;;;5038315;28;20699;-69
2023/05/07 06:51:13;;;;;;;9.73;3.10;;;;;;;;;;5035492;28;20141;-71
2023/05/07 06:53:38;;;;;;;3.17;2.60;;;;;;;;;;5021169;28;20189;-71
2023/05/07 06:56:05;;;;;;;2.92;2.60;;;;;;;;;;5020618;28;20041;-68
2023/05/07 06:58:30;;;;;;;3.30;2.28;;;;;;;;;;5020264;28;20037;-71
2023/05/07 07:00:56;;;;;;;3.65;2.50;;;;;;;;;;5037599;28;20050;-73
2023/05/07 07:03:22;;;;;;;4.07;2.67;;;;;;;;;;5020663;28;20048;-71
2023/05/07 07:05:52;;;;;;;2.75;2.50;;;;;;;;;;5037476;28;20049;-70
2023/05/07 07:08:17;;;;;;;3.50;2.70;;;;;;;;;;5019654;28;20086;-70
2023/05/07 07:10:43;;;;;;;3.90;2.40;;;;;;;;;;5034916;28;20038;-74
2023/05/07 07:13:09;;;;;;;2.42;2.22;;;;;;;;;;5037547;28;20042;-70
2023/05/07 07:15:35;;;;;;;4.40;2.45;;;;;;;;;;5019445;28;20050;-73
2023/05/07 07:18:00;;;;;;;4.13;2.70;;;;;;;;;;5017057;28;20045;-71
2023/05/07 07:20:26;;;;;;;2.70;2.50;;;;;;;;;;5017228;28;20507;-70
2023/05/07 07:22:51;;;;;;;4.63;3.20;;;;;;;;;;5031957;28;20816;-71
2023/05/07 07:25:17;;;;;;;3.53;3.00;;;;;;;;;;5034618;28;20456;-72
2023/05/07 07:27:43;;;;;;;3.88;3.10;;;;;;;;;;5033220;28;20052;-74
2023/05/07 07:30:09;;;;;;;4.82;2.95;;;;;;;;;;5022942;28;20923;-73
2023/05/07 07:32:37;;;;;;;3.50;3.13;;;;;;;;;;5038495;28;20438;-73
2023/05/07 07:35:04;;;;;;;6.03;3.50;;;;;;;;;;5033692;28;20050;-72
2023/05/07 07:37:30;;;;;;;5.60;3.63;;;;;;;;;;5018766;28;20049;-74
2023/05/07 07:39:56;;;;;;;5.53;3.47;;;;;;;;;;5030673;28;20060;-70
2023/05/07 07:42:21;;;;;;;6.65;4.00;;;;;;;;;;5032627;28;20077;-70
2023/05/07 07:44:47;;;;;;;4.80;3.78;;;;;;;;;;5033898;28;20563;-71
2023/05/07 07:47:14;;;;;;;6.55;3.97;;;;;;;;;;5019801;28;20073;-71
2023/05/07 07:49:41;;;;;;;6.68;3.75;;;;;;;;;;5029288;28;20131;-73
2023/05/07 07:52:08;;;;;;;8.65;4.10;;;;;;;;;;5016490;28;20073;-72
2023/05/07 07:54:36;;;;;;;4.45;4.05;;;;;;;;;;5017215;28;20049;-71
2023/05/07 07:57:03;;;;;;;4.60;4.20;;;;;;;;;;5012803;28;20049;-70
2023/05/07 07:59:31;;;;;;;6.43;4.38;;;;;;;;;;5016798;28;20041;-74
2023/05/07 08:01:57;;;;;;;5.60;4.13;;;;;;;;;;5034510;28;20052;-70
2023/05/07 08:04:25;;;;;;;4.60;3.60;;;;;;;;;;5015748;28;20056;-71
2023/05/07 08:06:54;;;;;;;3.60;3.30;;;;;;;;;;5034882;28;20042;-72
2023/05/07 08:09:20;;;;;;;4.32;2.92;;;;;;;;;;5015688;28;20048;-75
2023/05/07 08:11:46;;;;;;;3.55;3.25;;;;;;;;;;5034321;28;20083;-71
2023/05/07 08:14:13;;;;;;;4.20;3.30;;;;;;;;;;5013104;28;20061;-74
2023/05/07 08:16:38;;;;;;;3.63;3.33;;;;;;;;;;5017817;28;20037;-78
2023/05/07 08:19:04;;;;;;;3.97;3.35;;;;;;;;;;5011789;28;20053;-75
2023/05/07 08:21:30;;;;;;;7.95;3.90;;;;;;;;;;5032540;28;21079;-77
2023/05/07 08:23:56;;;;;;;3.90;3.60;;;;;;;;;;5018292;28;20084;-72
2023/05/07 08:26:22;;;;;;;4.00;3.60;;;;;;;;;;5032485;28;20049;-72
2023/05/07 08:28:48;;;;;;;5.53;3.45;;;;;;;;;;5035134;28;20037;-76
2023/05/07 08:31:13;;;;;;;7.60;3.55;;;;;;;;;;5016169;28;20061;-74
2023/05/07 08:33:40;;;;;;;4.38;3.20;;;;;;;;;;5005702;28;20056;-78
2023/05/07 08:36:06;;;;;;;5.28;3.47;;;;;;;;;;5018244;28;20045;-70
2023/05/07 08:38:32;;;;;;;4.20;3.38;;;;;;;;;;5033347;28;20132;-74
2023/05/07 08:40:58;;;;;;;3.38;3.08;;;;;;;;;;5036453;28;20041;-73
2023/05/07 08:43:26;;;;;;;6.15;3.30;;;;;;;;;;5031502;28;20030;-70
2023/05/07 08:45:54;;;;;;;5.00;4.00;;;;;;;;;;5034831;28;20041;-75
2023/05/07 08:48:24;;;;;;;6.93;3.58;;;;;;;;;;5015411;28;20073;-73
2023/05/07 08:50:57;;;;;;;3.88;3.28;;;;;;;;;;4987865;28;20046;-73
2023/05/07 08:53:22;;;;;;;5.05;3.50;;;;;;;;;;5000859;28;20056;-69
2023/05/07 08:55:50;;;;;;;3.75;3.45;;;;;;;;;;5029029;28;20390;-70
2023/05/07 08:58:16;;;;;;;4.45;3.60;;;;;;;;;;5029939;28;20054;-74
2023/05/07 09:00:42;;;;;;;7.68;3.50;;;;;;;;;;5032741;28;20402;-70
2023/05/07 09:03:08;;;;;;;3.63;2.83;;;;;;;;;;5029266;28;20417;-71
2023/05/07 09:05:35;;;;;;;4.90;3.00;;;;;;;;;;5011070;28;20051;-71
2023/05/07 09:08:02;;;;;;;3.90;3.45;;;;;;;;;;5029115;28;20042;-76
2023/05/07 09:10:29;;;;;;;5.45;3.33;;;;;;;;;;5012214;28;20049;-69
2023/05/07 09:12:55;;;;;;;4.50;2.78;;;;;;;;;;5010811;28;20061;-70
2023/05/07 09:15:21;;;;;;;3.35;2.97;;;;;;;;;;5032171;28;20160;-69
2023/05/07 09:17:47;;;;;;;3.70;3.40;;;;;;;;;;5015579;28;20103;-69
2023/05/07 09:20:13;;;;;;;3.65;2.65;;;;;;;;;;5031431;28;20052;-71
2023/05/07 09:22:39;;;;;;;5.50;2.60;;;;;;;;;;5017007;28;20041;-72
2023/05/07 09:25:09;;;;;;;4.38;3.00;;;;;;;;;;5026495;28;20049;-73
2023/05/07 09:27:37;;;;;;;4.88;3.00;;;;;;;;;;5012140;28;20156;-70
2023/05/07 09:30:06;;;;;;;3.55;3.20;;;;;;;;;;5015614;28;20053;-74
2023/05/07 09:32:35;;;;;;;3.85;2.80;;;;;;;;;;5010432;28;20053;-72
2023/05/07 09:35:02;;;;;;;4.57;2.75;;;;;;;;;;5014504;28;20136;-72
2023/05/07 09:37:30;;;;;;;3.25;2.67;;;;;;;;;;5029232;28;20056;-71
2023/05/07 09:39:56;;;;;;;3.80;2.33;;;;;;;;;;5018441;28;20072;-76
2023/05/07 09:42:27;;;;;;;3.17;2.53;;;;;;;;;;4983867;28;20499;-70
2023/05/07 09:44:56;;;;;;;3.65;2.60;;;;;;;;;;5030798;28;20410;-71
2023/05/07 09:47:25;;;;;;;5.90;2.80;;;;;;;;;;5015172;28;20041;-70
2023/05/07 09:49:57;;;;;;;3.13;2.63;;;;;;;;;;5012589;28;20076;-71
2023/05/07 09:52:24;;;;;;;4.28;2.45;;;;;;;;;;5010605;28;20103;-71
2023/05/07 09:54:54;;;;;;;2.70;2.17;;;;;;;;;;5008452;28;20156;-69
2023/05/07 09:57:23;;;;;;;4.07;2.17;;;;;;;;;;4998817;28;20132;-69
2023/05/07 09:59:56;;;;;;;2.28;2.08;;;;;;;;;;5017056;28;20041;-70
2023/05/07 10:02:25;;;;;;;3.95;2.30;;;;;;;;;;5015644;28;20045;-69
2023/05/07 10:04:54;;;;;;;2.70;2.17;;;;;;;;;;5032695;28;20135;-69
2023/05/07 10:07:25;;;;;;;2.95;1.98;;;;;;;;;;5015481;28;20041;-71
2023/05/07 10:09:54;;;;;;;2.22;2.03;;;;;;;;;;5017875;28;20049;-71
2023/05/07 10:12:29;;;;;;;3.20;2.10;;;;;;;;;;5014834;28;20122;-70
2023/05/07 10:14:56;;;;;;;2.15;1.90;;;;;;;;;;5020390;28;20157;-70
2023/05/07 10:17:23;;;;;;;4.07;1.85;;;;;;;;;;5021727;28;20056;-69
2023/05/07 10:19:50;;;;;;;4.53;1.80;;;;;;;;;;5038090;28;20084;-70
2023/05/07 10:22:17;;;;;;;2.53;1.65;;;;;;;;;;5016364;28;20049;-71
2023/05/07 10:24:48;;;;;;;3.72;1.65;;;;;;;;;;5032985;28;20045;-71
2023/05/07 10:27:17;;;;;;;2.00;1.80;;;;;;;;;;5017423;28;20041;-70
2023/05/07 10:29:53;;;;;;;;;;;;;;;;;;5020455;28;20037;-70
2023/05/07 10:32:42;;;;;;;2.15;1.80;;;;;;;;;;5017888;28;19937;-71
2023/05/07 10:35:26;;;;;;;2.65;2.10;;;;;;;;;;5035071;28;20041;-70
2023/05/07 10:37:53;;;;;;;2.47;1.50;;;;;;;;;;5019917;28;20426;-70
2023/05/07 10:40:21;;;;;;;2.70;1.75;;;;;;;;;;5036584;28;20061;-70
2023/05/07 10:42:55;;;;;;;2.40;2.00;;;;;;;;;;5029326;28;20153;-70
2023/05/07 10:45:22;;;;;;;3.53;2.75;;;;;;;;;;5009422;28;20045;-72
2023/05/07 10:48:12;;;;;;;4.43;2.47;;;;;;;;;;5017249;28;20046;-70
2023/05/07 10:50:40;;;;;;;2.22;2.00;;;;;;;;;;5035371;28;20048;-70
2023/05/07 10:53:18;;;;;;;4.90;2.00;;;;;;;;;;5013454;28;20156;-71
2023/05/07 10:56:17;;;;;;;3.22;2.30;;;;;;;;;;5018568;28;20108;-71
2023/05/07 10:58:47;;;;;;;3.45;2.15;;;;;;;;;;5004818;28;20092;-70
2023/05/07 11:01:49;;;;;;;2.30;2.00;;;;;;;;;;5033552;28;20045;-70
2023/05/07 11:04:17;;;;;;;2.20;2.00;;;;;;;;;;5016135;28;20518;-71
2023/05/07 11:07:08;;;;;;;2.85;2.40;;;;;;;;;;5015338;28;20095;-71
2023/05/07 11:09:51;;;;;;;3.63;2.08;;;;;;;;;;5017513;28;20049;-70
2023/05/07 11:12:35;;;;;;;4.63;1.90;;;;;;;;;;5018150;28;20053;-70
2023/05/07 11:15:08;;;;;;;4.03;1.90;;;;;;;;;;5020551;28;20050;-71
2023/05/07 11:17:56;;;;;;;2.28;1.77;;;;;;;;;;5036801;28;20041;-70
2023/05/07 11:20:45;;;;;;;10.80;2.25;;;;;;;;;;5017994;28;20932;-71
2023/05/07 11:23:37;;;;;;;5.30;2.50;;;;;;;;;;5036623;28;20159;-71
2023/05/07 11:26:13;;;;;;;2.95;2.08;;;;;;;;;;5037026;28;20142;-71
2023/05/07 11:28:41;;;;;;;4.30;2.10;;;;;;;;;;5017552;28;20068;-71
2023/05/07 11:31:08;;;;;;;2.80;2.60;;;;;;;;;;4992341;28;20041;-71
2023/05/07 11:33:35;;;;;;;4.20;2.20;;;;;;;;;;5034127;28;20039;-71
2023/05/07 11:36:04;;;;;;;2.22;2.00;;;;;;;;;;5017615;28;21047;-72
2023/05/07 11:38:36;;;;;;;2.22;1.90;;;;;;;;;;5034100;28;20081;-70
2023/05/07 11:41:04;;;;;;;2.80;1.40;;;;;;;;;;5016906;28;20142;-72
2023/05/07 11:43:30;;;;;;;4.78;2.25;;;;;;;;;;5016199;28;20038;-71
2023/05/07 11:46:05;;;;;;;1.98;1.55;;;;;;;;;;5013694;28;20042;-71
2023/05/07 11:48:31;;;;;;;2.38;2.15;;;;;;;;;;5049699;28;20165;-71
2023/05/07 11:51:02;;;;;;;2.15;1.95;;;;;;;;;;5016409;28;20085;-70
2023/05/07 11:53:36;;;;;;;2.57;1.60;;;;;;;;;;5006572;28;20184;-70
2023/05/07 11:56:07;;;;;;;3.90;3.40;;;;;;;;;;5012171;28;20053;-70
2023/05/07 11:58:32;;;;;;;4.95;1.80;;;;;;;;;;5010612;28;20053;-71
2023/05/07 12:00:58;;;;;;;4.00;2.20;;;;;;;;;;5012495;28;20560;-70
2023/05/07 12:03:23;;;;;;;2.25;1.80;;;;;;;;;;5011329;28;20144;-72
2023/05/07 12:05:48;;;;;;;2.20;1.98;;;;;;;;;;5013002;28;20057;-70
2023/05/07 12:08:15;;;;;;;2.10;1.90;;;;;;;;;;5011875;28;20057;-70
2023/05/07 12:10:42;;;;;;;6.07;3.50;;;;;;;;;;5013285;28;20103;-70
2023/05/07 12:13:18;;;;;;;1.90;1.80;;;;;;;;;;5013616;28;20050;-70
2023/05/07 12:15:43;;;;;;;1.60;1.50;;;;;;;;;;5011997;28;20048;-70
2023/05/07 12:18:10;;;;;;;1.77;1.60;;;;;;;;;;5017186;28;20045;-69
2023/05/07 12:20:36;;;;;;;2.42;1.60;;;;;;;;;;5013363;28;20524;-70
2023/05/07 12:23:02;;;;;;;2.50;1.50;;;;;;;;;;5017031;28;20407;-72
2023/05/07 12:25:32;;;;;;;1.88;1.55;;;;;;;;;;5018045;28;20064;-71
2023/05/07 12:28:00;;;;;;;2.85;1.55;;;;;;;;;;5011496;28;20057;-70
2023/05/07 12:30:25;;;;;;;1.60;1.50;;;;;;;;;;5013754;28;20165;-69
2023/05/07 12:32:54;;;;;;;3.03;1.42;;;;;;;;;;5012130;28;20164;-72
2023/05/07 12:35:27;;;;;;;2.28;1.40;;;;;;;;;;5007099;28;20493;-69
2023/05/07 12:37:58;;;;;;;1.45;1.35;;;;;;;;;;5015097;28;20148;-71
2023/05/07 12:40:24;;;;;;;;;;;;;;;;;;5008841;28;20050;-69
2023/05/07 12:42:54;;;;;;;1.48;1.38;;;;;;;;;;5009462;28;19967;-72
2023/05/07 12:45:19;;;;;;;6.05;1.77;;;;;;;;;;5007991;28;20073;-70
2023/05/07 12:47:45;;;;;;;2.05;1.45;;;;;;;;;;5009643;28;20080;-71
2023/05/07 12:50:12;;;;;;;2.13;1.25;;;;;;;;;;5013013;28;20132;-69
2023/05/07 12:52:38;;;;;;;2.40;1.55;;;;;;;;;;5012848;28;20052;-70
2023/05/07 12:55:06;;;;;;;2.28;1.70;;;;;;;;;;5033333;28;20095;-70
2023/05/07 12:57:38;;;;;;;4.00;1.80;;;;;;;;;;5013233;28;20482;-72
2023/05/07 13:00:04;;;;;;;1.55;1.45;;;;;;;;;;5012042;28;20060;-71
2023/05/07 13:02:34;;;;;;;6.05;1.60;;;;;;;;;;5018193;28;20049;-69
2023/05/07 13:05:00;;;;;;;3.22;1.60;;;;;;;;;;5005141;28;20055;-69
2023/05/07 13:07:25;;;;;;;6.68;1.65;;;;;;;;;;5014783;28;20045;-70
2023/05/07 13:09:54;;;;;;;2.00;1.73;;;;;;;;;;5033514;28;20045;-72
2023/05/07 13:12:19;;;;;;;7.50;1.70;;;;;;;;;;5007231;28;20046;-69
2023/05/07 13:14:45;;;;;;;2.83;2.05;;;;;;;;;;5012020;28;20048;-69
2023/05/07 13:17:10;;;;;;;1.88;1.70;;;;;;;;;;5014873;28;20518;-69
2023/05/07 13:19:37;;;;;;;4.85;1.60;;;;;;;;;;5009506;28;20053;-69
2023/05/07 13:22:03;;;;;;;1.67;1.58;;;;;;;;;;5008068;28;20049;-69
2023/05/07 13:24:28;;;;;;;1.58;1.42;;;;;;;;;;5011491;28;20064;-70
2023/05/07 13:26:53;;;;;;;2.55;2.33;;;;;;;;;;5011856;28;20045;-70
2023/05/07 13:29:19;;;;;;;1.92;1.80;;;;;;;;;;5010679;28;20041;-70
2023/05/07 13:31:44;;;;;;;2.13;1.90;;;;;;;;;;5007612;28;20093;-69
2023/05/07 13:34:10;;;;;;;4.25;2.08;;;;;;;;;;5009701;28;20088;-70
2023/05/07 13:36:39;;;;;;;1.92;1.70;;;;;;;;;;5010689;28;20043;-70
2023/05/07 13:39:05;;;;;;;2.20;1.70;;;;;;;;;;5009974;28;20046;-70
2023/05/07 13:41:31;;;;;;;2.88;1.83;;;;;;;;;;5010739;28;20064;-70
2023/05/07 13:43:56;;;;;;;2.75;1.63;;;;;;;;;;5014605;28;20053;-70
2023/05/07 13:46:22;;;;;;;4.32;1.60;;;;;;;;;;5016004;28;20045;-70
2023/05/07 13:48:47;;;;;;;2.78;1.90;;;;;;;;;;5023100;28;20056;-70
2023/05/07 13:51:13;;;;;;;2.20;1.88;;;;;;;;;;5016297;28;20046;-71
2023/05/07 13:53:38;;;;;;;1.92;1.73;;;;;;;;;;5019535;28;20048;-70
2023/05/07 13:56:04;;;;;;;1.60;1.50;;;;;;;;;;5016675;28;20068;-70
2023/05/07 13:58:30;;;;;;;1.73;1.63;;;;;;;;;;5021853;28;20045;-70
2023/05/07 14:00:55;;;;;;;3.88;1.65;;;;;;;;;;5023338;28;20099;-70
2023/05/07 14:03:21;;;;;;;1.60;1.50;;;;;;;;;;5023159;28;20069;-70
2023/05/07 14:05:47;;;;;;;1.85;1.30;;;;;;;;;;5015189;28;20042;-69
2023/05/07 14:08:13;;;;;;;2.42;1.33;;;;;;;;;;5014472;28;20045;-70
2023/05/07 14:10:40;;;;;;;1.90;1.42;;;;;;;;;;5014246;28;20084;-70
2023/05/07 14:13:06;;;;;;;3.63;1.48;;;;;;;;;;5014023;28;20058;-71
2023/05/07 14:15:32;;;;;;;1.75;1.52;;;;;;;;;;5015943;28;20045;-69
2023/05/07 14:17:58;;;;;;;2.95;1.48;;;;;;;;;;5014159;28;20056;-69
2023/05/07 14:20:25;;;;;;;2.28;1.60;;;;;;;;;;5013733;28;20087;-70
2023/05/07 14:22:50;;;;;;;3.30;1.77;;;;;;;;;;5013662;28;20526;-70
2023/05/07 14:25:16;;;;;;;3.20;1.60;;;;;;;;;;5013781;28;20057;-70
2023/05/07 14:27:44;;;;;;;2.90;1.60;;;;;;;;;;5014875;28;20137;-70
2023/05/07 14:30:11;;;;;;;3.70;1.50;;;;;;;;;;5010364;28;20050;-71
2023/05/07 14:32:36;;;;;;;2.40;1.65;;;;;;;;;;5022809;28;20057;-70
2023/05/07 14:35:02;;;;;;;4.53;1.55;;;;;;;;;;5016986;28;20140;-70
2023/05/07 14:37:28;;;;;;;2.40;1.33;;;;;;;;;;5020121;28;20390;-69
2023/05/07 14:39:53;;;;;;;1.38;1.27;;;;;;;;;;5020080;28;20041;-69
2023/05/07 14:42:18;;;;;;;2.22;1.50;;;;;;;;;;5011515;28;20084;-70